Terminal Aerodrome Forecast
Issued by NWS Blacksburg, VA

Home | Current Version | Previous Version | Text Only | Print | Product List | Glossary On
Versions: 1 2 3 4 5 6 7 8 9 10 11 12 13 14 15 16 17 18 19 20 21 22 23 24 25 26 27 28 29 30 31 32 33 34 35 36 37 38
000
FTUS41 KRNK 261120
TAFDAN
TAF
KDAN 261120Z 2612/2712 00000KT 3/4SM BR SCT001 BKN050
      TEMPO 2612/2614 1/4SM FG OVC001
     FM261430 VRB03KT P6SM SCT015 BKN250
     FM261900 18007KT P6SM VCSH SCT050 BKN150
     FM270000 22011G20KT 5SM SHRA OVC025
     FM270300 28012G22KT P6SM BKN035
     FM270600 30011G22KT P6SM SKC=

USA.gov is the U.S. government's official web portal to all federal, state and local government web resources and services.